sensor_id;sensor_type;location;lat;lon;timestamp;P1;durP1;ratioP1;P2;durP2;ratioP2
32932;SDS011;19444;50.518;10.870;2023-05-07T00:01:18;18.85;;;14.70;;
32932;SDS011;19444;50.518;10.870;2023-05-07T00:04:15;20.30;;;15.55;;
32932;SDS011;19444;50.518;10.870;2023-05-07T00:07:13;20.85;;;14.98;;
32932;SDS011;19444;50.518;10.870;2023-05-07T00:10:10;22.33;;;15.05;;
32932;SDS011;19444;50.518;10.870;2023-05-07T00:13:08;20.27;;;15.30;;
32932;SDS011;19444;50.518;10.870;2023-05-07T00:16:05;22.00;;;15.18;;
32932;SDS011;19444;50.518;10.870;2023-05-07T00:19:03;20.80;;;14.85;;
32932;SDS011;19444;50.518;10.870;2023-05-07T00:22:00;21.83;;;14.50;;
32932;SDS011;19444;50.518;10.870;2023-05-07T00:24:57;23.40;;;16.27;;
32932;SDS011;19444;50.518;10.870;2023-05-07T00:27:55;26.13;;;17.42;;
32932;SDS011;19444;50.518;10.870;2023-05-07T00:30:52;22.70;;;17.17;;
32932;SDS011;19444;50.518;10.870;2023-05-07T00:33:49;23.63;;;17.42;;
32932;SDS011;19444;50.518;10.870;2023-05-07T00:36:46;23.52;;;16.70;;
32932;SDS011;19444;50.518;10.870;2023-05-07T00:39:43;26.35;;;18.02;;
32932;SDS011;19444;50.518;10.870;2023-05-07T00:42:39;23.95;;;16.60;;
32932;SDS011;19444;50.518;10.870;2023-05-07T00:45:36;23.60;;;17.20;;
32932;SDS011;19444;50.518;10.870;2023-05-07T00:48:34;27.38;;;17.70;;
32932;SDS011;19444;50.518;10.870;2023-05-07T00:51:31;25.45;;;17.73;;
32932;SDS011;19444;50.518;10.870;2023-05-07T00:54:29;22.73;;;17.15;;
32932;SDS011;19444;50.518;10.870;2023-05-07T00:57:26;26.05;;;17.20;;
32932;SDS011;19444;50.518;10.870;2023-05-07T01:00:23;23.33;;;17.52;;
32932;SDS011;19444;50.518;10.870;2023-05-07T01:03:21;25.10;;;18.25;;
32932;SDS011;19444;50.518;10.870;2023-05-07T01:06:18;24.13;;;16.85;;
32932;SDS011;19444;50.518;10.870;2023-05-07T01:09:17;23.02;;;16.35;;
32932;SDS011;19444;50.518;10.870;2023-05-07T01:12:16;25.65;;;17.73;;
32932;SDS011;19444;50.518;10.870;2023-05-07T01:15:13;24.40;;;16.52;;
32932;SDS011;19444;50.518;10.870;2023-05-07T01:18:11;25.02;;;17.02;;
32932;SDS011;19444;50.518;10.870;2023-05-07T01:21:08;26.65;;;17.63;;
32932;SDS011;19444;50.518;10.870;2023-05-07T01:24:07;24.15;;;16.83;;
32932;SDS011;19444;50.518;10.870;2023-05-07T01:27:04;26.48;;;17.63;;
32932;SDS011;19444;50.518;10.870;2023-05-07T01:30:01;24.08;;;16.35;;
32932;SDS011;19444;50.518;10.870;2023-05-07T01:33:01;23.23;;;15.48;;
32932;SDS011;19444;50.518;10.870;2023-05-07T01:36:04;23.73;;;16.38;;
32932;SDS011;19444;50.518;10.870;2023-05-07T01:39:03;26.92;;;17.90;;
32932;SDS011;19444;50.518;10.870;2023-05-07T01:42:01;28.30;;;17.85;;
32932;SDS011;19444;50.518;10.870;2023-05-07T01:44:58;25.88;;;18.08;;
32932;SDS011;19444;50.518;10.870;2023-05-07T01:47:56;23.60;;;17.33;;
32932;SDS011;19444;50.518;10.870;2023-05-07T01:50:55;26.38;;;17.63;;
32932;SDS011;19444;50.518;10.870;2023-05-07T01:53:52;27.70;;;17.80;;
32932;SDS011;19444;50.518;10.870;2023-05-07T01:56:49;26.13;;;17.27;;
32932;SDS011;19444;50.518;10.870;2023-05-07T01:59:46;29.75;;;19.27;;
32932;SDS011;19444;50.518;10.870;2023-05-07T02:02:43;24.98;;;17.02;;
32932;SDS011;19444;50.518;10.870;2023-05-07T02:05:40;27.00;;;18.98;;
32932;SDS011;19444;50.518;10.870;2023-05-07T02:08:37;28.63;;;19.65;;
32932;SDS011;19444;50.518;10.870;2023-05-07T02:11:34;26.67;;;17.38;;
32932;SDS011;19444;50.518;10.870;2023-05-07T02:14:31;27.30;;;18.02;;
32932;SDS011;19444;50.518;10.870;2023-05-07T02:17:29;30.00;;;19.08;;
32932;SDS011;19444;50.518;10.870;2023-05-07T02:20:28;30.13;;;20.05;;
32932;SDS011;19444;50.518;10.870;2023-05-07T02:23:25;27.60;;;18.58;;
32932;SDS011;19444;50.518;10.870;2023-05-07T02:26:22;30.55;;;20.48;;
32932;SDS011;19444;50.518;10.870;2023-05-07T02:29:18;28.13;;;18.58;;
32932;SDS011;19444;50.518;10.870;2023-05-07T02:32:15;33.88;;;20.35;;
32932;SDS011;19444;50.518;10.870;2023-05-07T02:35:12;30.33;;;18.95;;
32932;SDS011;19444;50.518;10.870;2023-05-07T02:38:09;30.58;;;19.70;;
32932;SDS011;19444;50.518;10.870;2023-05-07T02:41:06;28.70;;;18.45;;
32932;SDS011;19444;50.518;10.870;2023-05-07T02:44:03;28.33;;;17.58;;
32932;SDS011;19444;50.518;10.870;2023-05-07T02:47:00;26.75;;;17.88;;
32932;SDS011;19444;50.518;10.870;2023-05-07T02:49:57;24.75;;;16.73;;
32932;SDS011;19444;50.518;10.870;2023-05-07T02:52:54;27.98;;;17.98;;
32932;SDS011;19444;50.518;10.870;2023-05-07T02:55:55;27.48;;;17.67;;
32932;SDS011;19444;50.518;10.870;2023-05-07T02:58:53;25.95;;;17.75;;
32932;SDS011;19444;50.518;10.870;2023-05-07T03:01:50;28.30;;;17.77;;
32932;SDS011;19444;50.518;10.870;2023-05-07T03:04:47;25.00;;;17.52;;
32932;SDS011;19444;50.518;10.870;2023-05-07T03:07:44;29.58;;;18.95;;
32932;SDS011;19444;50.518;10.870;2023-05-07T03:10:42;27.20;;;18.10;;
32932;SDS011;19444;50.518;10.870;2023-05-07T03:13:39;28.38;;;18.17;;
32932;SDS011;19444;50.518;10.870;2023-05-07T03:16:36;26.60;;;17.98;;
32932;SDS011;19444;50.518;10.870;2023-05-07T03:19:34;24.30;;;16.48;;
32932;SDS011;19444;50.518;10.870;2023-05-07T03:22:31;27.70;;;17.95;;
32932;SDS011;19444;50.518;10.870;2023-05-07T03:25:28;22.70;;;16.50;;
32932;SDS011;19444;50.518;10.870;2023-05-07T03:28:28;22.30;;;15.57;;
32932;SDS011;19444;50.518;10.870;2023-05-07T03:31:24;26.45;;;17.65;;
32932;SDS011;19444;50.518;10.870;2023-05-07T03:34:21;23.92;;;16.42;;
32932;SDS011;19444;50.518;10.870;2023-05-07T03:37:18;27.80;;;18.38;;
32932;SDS011;19444;50.518;10.870;2023-05-07T03:40:15;29.33;;;18.88;;
32932;SDS011;19444;50.518;10.870;2023-05-07T03:43:13;25.92;;;17.42;;
32932;SDS011;19444;50.518;10.870;2023-05-07T03:46:09;28.35;;;18.95;;
32932;SDS011;19444;50.518;10.870;2023-05-07T03:49:06;28.73;;;17.65;;
32932;SDS011;19444;50.518;10.870;2023-05-07T03:52:04;26.00;;;17.13;;
32932;SDS011;19444;50.518;10.870;2023-05-07T03:55:01;28.88;;;18.50;;
32932;SDS011;19444;50.518;10.870;2023-05-07T03:57:58;30.90;;;19.35;;
32932;SDS011;19444;50.518;10.870;2023-05-07T04:00:56;28.08;;;17.67;;
32932;SDS011;19444;50.518;10.870;2023-05-07T04:03:53;33.33;;;19.67;;
32932;SDS011;19444;50.518;10.870;2023-05-07T04:06:50;32.65;;;20.45;;
32932;SDS011;19444;50.518;10.870;2023-05-07T04:09:47;32.42;;;18.38;;
32932;SDS011;19444;50.518;10.870;2023-05-07T04:12:44;32.10;;;20.38;;
32932;SDS011;19444;50.518;10.870;2023-05-07T04:15:41;31.38;;;20.48;;
32932;SDS011;19444;50.518;10.870;2023-05-07T04:18:38;34.25;;;21.02;;
32932;SDS011;19444;50.518;10.870;2023-05-07T04:21:35;31.55;;;19.63;;
32932;SDS011;19444;50.518;10.870;2023-05-07T04:24:32;33.08;;;19.85;;
32932;SDS011;19444;50.518;10.870;2023-05-07T04:27:29;31.42;;;20.55;;
32932;SDS011;19444;50.518;10.870;2023-05-07T04:30:26;30.00;;;19.00;;
32932;SDS011;19444;50.518;10.870;2023-05-07T04:33:23;31.17;;;18.80;;
32932;SDS011;19444;50.518;10.870;2023-05-07T04:36:19;31.58;;;19.08;;
32932;SDS011;19444;50.518;10.870;2023-05-07T04:39:17;32.17;;;19.45;;
32932;SDS011;19444;50.518;10.870;2023-05-07T04:42:15;32.25;;;18.83;;
32932;SDS011;19444;50.518;10.870;2023-05-07T04:45:13;32.88;;;19.02;;
32932;SDS011;19444;50.518;10.870;2023-05-07T04:48:10;30.95;;;19.90;;
32932;SDS011;19444;50.518;10.870;2023-05-07T04:51:07;30.30;;;18.90;;
32932;SDS011;19444;50.518;10.870;2023-05-07T04:54:04;29.52;;;19.05;;
32932;SDS011;19444;50.518;10.870;2023-05-07T04:57:03;32.55;;;18.77;;
32932;SDS011;19444;50.518;10.870;2023-05-07T05:00:00;31.95;;;18.60;;
32932;SDS011;19444;50.518;10.870;2023-05-07T05:02:57;27.40;;;18.45;;
32932;SDS011;19444;50.518;10.870;2023-05-07T05:05:54;28.90;;;17.35;;
32932;SDS011;19444;50.518;10.870;2023-05-07T05:08:51;29.50;;;17.85;;
32932;SDS011;19444;50.518;10.870;2023-05-07T05:11:48;30.75;;;18.30;;
32932;SDS011;19444;50.518;10.870;2023-05-07T05:14:45;26.83;;;17.35;;
32932;SDS011;19444;50.518;10.870;2023-05-07T05:17:42;28.95;;;18.13;;
32932;SDS011;19444;50.518;10.870;2023-05-07T05:20:39;29.55;;;17.70;;
32932;SDS011;19444;50.518;10.870;2023-05-07T05:23:36;26.88;;;16.27;;
32932;SDS011;19444;50.518;10.870;2023-05-07T05:26:33;28.42;;;17.80;;
32932;SDS011;19444;50.518;10.870;2023-05-07T05:29:30;27.70;;;16.75;;
32932;SDS011;19444;50.518;10.870;2023-05-07T05:32:27;26.38;;;16.73;;
32932;SDS011;19444;50.518;10.870;2023-05-07T05:35:24;23.95;;;15.38;;
32932;SDS011;19444;50.518;10.870;2023-05-07T05:38:21;28.58;;;16.88;;
32932;SDS011;19444;50.518;10.870;2023-05-07T05:41:18;27.50;;;16.58;;
32932;SDS011;19444;50.518;10.870;2023-05-07T05:44:15;22.02;;;15.07;;
32932;SDS011;19444;50.518;10.870;2023-05-07T05:47:12;23.75;;;15.13;;
32932;SDS011;19444;50.518;10.870;2023-05-07T05:50:09;24.75;;;15.80;;
32932;SDS011;19444;50.518;10.870;2023-05-07T05:53:06;24.27;;;15.10;;
32932;SDS011;19444;50.518;10.870;2023-05-07T05:56:03;24.50;;;14.00;;
32932;SDS011;19444;50.518;10.870;2023-05-07T05:59:00;26.38;;;15.93;;
32932;SDS011;19444;50.518;10.870;2023-05-07T06:01:57;26.23;;;15.65;;
32932;SDS011;19444;50.518;10.870;2023-05-07T06:04:54;27.75;;;17.02;;
32932;SDS011;19444;50.518;10.870;2023-05-07T06:07:51;30.00;;;17.15;;
32932;SDS011;19444;50.518;10.870;2023-05-07T06:10:48;23.60;;;14.68;;
32932;SDS011;19444;50.518;10.870;2023-05-07T06:13:45;21.73;;;13.25;;
32932;SDS011;19444;50.518;10.870;2023-05-07T06:16:42;24.55;;;14.85;;
32932;SDS011;19444;50.518;10.870;2023-05-07T06:19:39;22.48;;;14.57;;
32932;SDS011;19444;50.518;10.870;2023-05-07T06:22:36;20.23;;;13.05;;
32932;SDS011;19444;50.518;10.870;2023-05-07T06:25:32;23.33;;;13.65;;
32932;SDS011;19444;50.518;10.870;2023-05-07T06:28:29;23.40;;;13.98;;
32932;SDS011;19444;50.518;10.870;2023-05-07T06:31:31;18.25;;;10.73;;
32932;SDS011;19444;50.518;10.870;2023-05-07T06:34:28;24.50;;;13.65;;
32932;SDS011;19444;50.518;10.870;2023-05-07T06:37:25;22.77;;;15.15;;
32932;SDS011;19444;50.518;10.870;2023-05-07T06:40:22;27.95;;;14.57;;
32932;SDS011;19444;50.518;10.870;2023-05-07T06:43:19;24.33;;;14.60;;
32932;SDS011;19444;50.518;10.870;2023-05-07T06:46:16;20.88;;;13.18;;
32932;SDS011;19444;50.518;10.870;2023-05-07T06:49:13;23.15;;;13.95;;
32932;SDS011;19444;50.518;10.870;2023-05-07T06:52:10;23.02;;;14.07;;
32932;SDS011;19444;50.518;10.870;2023-05-07T06:55:07;21.70;;;13.55;;
32932;SDS011;19444;50.518;10.870;2023-05-07T06:58:04;22.40;;;13.80;;
32932;SDS011;19444;50.518;10.870;2023-05-07T07:01:02;21.27;;;13.07;;
32932;SDS011;19444;50.518;10.870;2023-05-07T07:03:59;21.92;;;13.65;;
32932;SDS011;19444;50.518;10.870;2023-05-07T07:06:56;23.33;;;13.93;;
32932;SDS011;19444;50.518;10.870;2023-05-07T07:09:53;21.73;;;13.35;;
32932;SDS011;19444;50.518;10.870;2023-05-07T07:12:51;22.02;;;13.43;;
32932;SDS011;19444;50.518;10.870;2023-05-07T07:15:49;21.33;;;14.00;;
32932;SDS011;19444;50.518;10.870;2023-05-07T07:18:46;22.33;;;13.48;;
32932;SDS011;19444;50.518;10.870;2023-05-07T07:21:42;20.40;;;12.60;;
32932;SDS011;19444;50.518;10.870;2023-05-07T07:24:40;16.75;;;11.27;;
32932;SDS011;19444;50.518;10.870;2023-05-07T07:27:37;19.67;;;12.65;;
32932;SDS011;19444;50.518;10.870;2023-05-07T07:30:36;17.38;;;11.80;;
32932;SDS011;19444;50.518;10.870;2023-05-07T07:33:33;18.52;;;11.23;;
32932;SDS011;19444;50.518;10.870;2023-05-07T07:36:30;20.15;;;12.73;;
32932;SDS011;19444;50.518;10.870;2023-05-07T07:42:38;17.30;;;11.88;;
32932;SDS011;19444;50.518;10.870;2023-05-07T07:45:35;18.08;;;12.32;;
32932;SDS011;19444;50.518;10.870;2023-05-07T07:48:32;14.45;;;9.43;;
32932;SDS011;19444;50.518;10.870;2023-05-07T07:51:29;15.85;;;9.52;;
32932;SDS011;19444;50.518;10.870;2023-05-07T07:54:26;16.35;;;9.93;;
32932;SDS011;19444;50.518;10.870;2023-05-07T07:57:24;14.38;;;9.90;;
32932;SDS011;19444;50.518;10.870;2023-05-07T08:00:21;13.95;;;9.52;;
32932;SDS011;19444;50.518;10.870;2023-05-07T08:03:18;15.35;;;9.23;;
32932;SDS011;19444;50.518;10.870;2023-05-07T08:06:16;14.13;;;9.52;;
32932;SDS011;19444;50.518;10.870;2023-05-07T08:09:12;14.02;;;9.43;;
32932;SDS011;19444;50.518;10.870;2023-05-07T08:12:09;12.13;;;7.85;;
32932;SDS011;19444;50.518;10.870;2023-05-07T08:15:06;14.57;;;9.85;;
32932;SDS011;19444;50.518;10.870;2023-05-07T08:18:04;12.10;;;8.35;;
32932;SDS011;19444;50.518;10.870;2023-05-07T08:21:01;12.50;;;8.10;;
32932;SDS011;19444;50.518;10.870;2023-05-07T08:23:58;11.18;;;7.90;;
32932;SDS011;19444;50.518;10.870;2023-05-07T08:26:55;12.55;;;8.30;;
32932;SDS011;19444;50.518;10.870;2023-05-07T08:29:53;11.32;;;7.80;;
32932;SDS011;19444;50.518;10.870;2023-05-07T08:32:50;10.00;;;6.85;;
32932;SDS011;19444;50.518;10.870;2023-05-07T08:35:47;10.65;;;7.72;;
32932;SDS011;19444;50.518;10.870;2023-05-07T08:38:44;11.30;;;7.63;;
32932;SDS011;19444;50.518;10.870;2023-05-07T08:41:45;11.25;;;7.43;;
32932;SDS011;19444;50.518;10.870;2023-05-07T08:44:44;10.48;;;7.32;;
32932;SDS011;19444;50.518;10.870;2023-05-07T08:47:43;9.73;;;6.95;;
32932;SDS011;19444;50.518;10.870;2023-05-07T08:50:43;10.25;;;7.20;;
32932;SDS011;19444;50.518;10.870;2023-05-07T08:53:41;13.15;;;7.47;;
32932;SDS011;19444;50.518;10.870;2023-05-07T08:56:38;8.50;;;6.45;;
32932;SDS011;19444;50.518;10.870;2023-05-07T08:59:36;8.73;;;6.47;;
32932;SDS011;19444;50.518;10.870;2023-05-07T09:02:34;8.68;;;6.03;;
32932;SDS011;19444;50.518;10.870;2023-05-07T09:05:33;10.43;;;6.28;;
32932;SDS011;19444;50.518;10.870;2023-05-07T09:08:30;8.07;;;6.00;;
32932;SDS011;19444;50.518;10.870;2023-05-07T09:11:29;8.43;;;6.20;;
32932;SDS011;19444;50.518;10.870;2023-05-07T09:14:26;8.93;;;6.25;;
32932;SDS011;19444;50.518;10.870;2023-05-07T09:17:23;8.75;;;6.30;;
32932;SDS011;19444;50.518;10.870;2023-05-07T09:20:20;7.82;;;5.50;;
32932;SDS011;19444;50.518;10.870;2023-05-07T09:23:18;6.97;;;5.00;;
32932;SDS011;19444;50.518;10.870;2023-05-07T09:26:15;5.57;;;4.32;;
32932;SDS011;19444;50.518;10.870;2023-05-07T09:29:11;5.72;;;4.75;;
32932;SDS011;19444;50.518;10.870;2023-05-07T09:32:08;7.30;;;4.85;;
32932;SDS011;19444;50.518;10.870;2023-05-07T09:35:05;5.90;;;4.63;;
32932;SDS011;19444;50.518;10.870;2023-05-07T09:38:11;6.30;;;4.53;;
32932;SDS011;19444;50.518;10.870;2023-05-07T09:41:10;6.63;;;4.78;;
32932;SDS011;19444;50.518;10.870;2023-05-07T09:44:08;5.55;;;4.30;;
32932;SDS011;19444;50.518;10.870;2023-05-07T09:47:07;7.72;;;5.32;;
32932;SDS011;19444;50.518;10.870;2023-05-07T09:50:04;7.30;;;5.32;;
32932;SDS011;19444;50.518;10.870;2023-05-07T09:53:04;7.45;;;4.85;;
32932;SDS011;19444;50.518;10.870;2023-05-07T09:56:02;6.88;;;4.97;;
32932;SDS011;19444;50.518;10.870;2023-05-07T09:59:00;8.30;;;4.90;;
32932;SDS011;19444;50.518;10.870;2023-05-07T10:01:59;5.93;;;4.78;;
32932;SDS011;19444;50.518;10.870;2023-05-07T10:05:00;7.18;;;5.30;;
32932;SDS011;19444;50.518;10.870;2023-05-07T10:07:59;8.43;;;5.53;;
32932;SDS011;19444;50.518;10.870;2023-05-07T10:10:59;8.45;;;6.05;;
32932;SDS011;19444;50.518;10.870;2023-05-07T10:13:57;8.70;;;4.78;;
32932;SDS011;19444;50.518;10.870;2023-05-07T10:16:54;8.20;;;5.45;;
32932;SDS011;19444;50.518;10.870;2023-05-07T10:19:53;7.70;;;5.07;;
32932;SDS011;19444;50.518;10.870;2023-05-07T10:22:51;7.22;;;5.22;;
32932;SDS011;19444;50.518;10.870;2023-05-07T10:25:52;6.70;;;5.35;;
32932;SDS011;19444;50.518;10.870;2023-05-07T10:29:01;9.25;;;5.22;;
32932;SDS011;19444;50.518;10.870;2023-05-07T10:32:25;7.32;;;5.57;;
32932;SDS011;19444;50.518;10.870;2023-05-07T10:35:42;8.73;;;5.53;;
32932;SDS011;19444;50.518;10.870;2023-05-07T10:38:42;8.23;;;5.93;;
32932;SDS011;19444;50.518;10.870;2023-05-07T10:41:39;8.68;;;6.07;;
32932;SDS011;19444;50.518;10.870;2023-05-07T10:44:36;9.15;;;6.75;;
32932;SDS011;19444;50.518;10.870;2023-05-07T10:47:33;8.30;;;5.82;;
32932;SDS011;19444;50.518;10.870;2023-05-07T10:50:30;9.18;;;6.07;;
32932;SDS011;19444;50.518;10.870;2023-05-07T10:53:27;9.20;;;6.25;;
32932;SDS011;19444;50.518;10.870;2023-05-07T10:56:25;8.40;;;6.40;;
32932;SDS011;19444;50.518;10.870;2023-05-07T10:59:33;9.98;;;6.95;;
32932;SDS011;19444;50.518;10.870;2023-05-07T11:09:23;9.70;;;7.15;;
32932;SDS011;19444;50.518;10.870;2023-05-07T11:15:39;9.55;;;7.03;;
32932;SDS011;19444;50.518;10.870;2023-05-07T11:18:46;10.60;;;6.55;;
32932;SDS011;19444;50.518;10.870;2023-05-07T11:21:49;9.60;;;7.30;;
32932;SDS011;19444;50.518;10.870;2023-05-07T11:24:46;8.90;;;6.82;;
32932;SDS011;19444;50.518;10.870;2023-05-07T11:27:43;8.27;;;6.47;;
32932;SDS011;19444;50.518;10.870;2023-05-07T11:30:42;11.73;;;7.32;;
32932;SDS011;19444;50.518;10.870;2023-05-07T11:33:39;9.23;;;6.80;;
32932;SDS011;19444;50.518;10.870;2023-05-07T11:36:41;7.72;;;6.70;;
32932;SDS011;19444;50.518;10.870;2023-05-07T11:39:41;9.40;;;7.07;;
32932;SDS011;19444;50.518;10.870;2023-05-07T11:42:39;8.50;;;6.68;;
32932;SDS011;19444;50.518;10.870;2023-05-07T11:45:40;9.73;;;6.90;;
32932;SDS011;19444;50.518;10.870;2023-05-07T11:48:37;8.23;;;6.72;;
32932;SDS011;19444;50.518;10.870;2023-05-07T11:51:35;8.18;;;5.97;;
32932;SDS011;19444;50.518;10.870;2023-05-07T11:54:35;8.40;;;6.10;;
32932;SDS011;19444;50.518;10.870;2023-05-07T11:57:33;7.20;;;5.88;;
32932;SDS011;19444;50.518;10.870;2023-05-07T12:00:30;8.98;;;5.97;;
32932;SDS011;19444;50.518;10.870;2023-05-07T12:03:27;7.78;;;5.97;;
32932;SDS011;19444;50.518;10.870;2023-05-07T12:06:30;7.05;;;5.70;;
32932;SDS011;19444;50.518;10.870;2023-05-07T12:09:27;9.20;;;6.70;;
32932;SDS011;19444;50.518;10.870;2023-05-07T12:12:24;7.15;;;5.78;;
32932;SDS011;19444;50.518;10.870;2023-05-07T12:15:23;7.13;;;5.72;;
32932;SDS011;19444;50.518;10.870;2023-05-07T12:18:19;6.43;;;5.57;;
32932;SDS011;19444;50.518;10.870;2023-05-07T12:21:17;7.47;;;5.68;;
32932;SDS011;19444;50.518;10.870;2023-05-07T12:24:14;7.15;;;5.28;;
32932;SDS011;19444;50.518;10.870;2023-05-07T12:27:11;8.20;;;6.18;;
32932;SDS011;19444;50.518;10.870;2023-05-07T12:30:09;7.30;;;6.18;;
32932;SDS011;19444;50.518;10.870;2023-05-07T12:33:07;7.90;;;6.57;;
32932;SDS011;19444;50.518;10.870;2023-05-07T12:36:05;7.40;;;5.90;;
32932;SDS011;19444;50.518;10.870;2023-05-07T12:39:06;7.75;;;6.32;;
32932;SDS011;19444;50.518;10.870;2023-05-07T12:42:07;6.90;;;5.93;;
32932;SDS011;19444;50.518;10.870;2023-05-07T12:45:08;7.65;;;6.15;;
32932;SDS011;19444;50.518;10.870;2023-05-07T12:48:10;7.80;;;6.03;;
32932;SDS011;19444;50.518;10.870;2023-05-07T12:51:07;7.45;;;6.28;;
32932;SDS011;19444;50.518;10.870;2023-05-07T12:54:06;7.65;;;6.82;;
32932;SDS011;19444;50.518;10.870;2023-05-07T12:57:05;8.60;;;6.57;;
32932;SDS011;19444;50.518;10.870;2023-05-07T13:00:06;8.40;;;6.43;;
32932;SDS011;19444;50.518;10.870;2023-05-07T13:03:04;8.02;;;6.75;;
32932;SDS011;19444;50.518;10.870;2023-05-07T13:06:02;7.93;;;6.43;;
32932;SDS011;19444;50.518;10.870;2023-05-07T13:09:01;7.65;;;6.70;;
32932;SDS011;19444;50.518;10.870;2023-05-07T13:11:58;7.80;;;6.40;;
32932;SDS011;19444;50.518;10.870;2023-05-07T13:14:57;9.07;;;7.10;;
32932;SDS011;19444;50.518;10.870;2023-05-07T13:17:55;9.23;;;6.50;;
32932;SDS011;19444;50.518;10.870;2023-05-07T13:20:52;9.52;;;6.97;;
32932;SDS011;19444;50.518;10.870;2023-05-07T13:23:49;9.68;;;7.15;;
32932;SDS011;19444;50.518;10.870;2023-05-07T13:26:46;8.93;;;7.22;;
32932;SDS011;19444;50.518;10.870;2023-05-07T13:29:43;7.88;;;6.43;;
32932;SDS011;19444;50.518;10.870;2023-05-07T13:32:40;8.43;;;6.82;;
32932;SDS011;19444;50.518;10.870;2023-05-07T13:35:37;6.88;;;6.15;;
32932;SDS011;19444;50.518;10.870;2023-05-07T13:38:34;9.90;;;7.45;;
32932;SDS011;19444;50.518;10.870;2023-05-07T13:41:31;9.75;;;7.25;;
32932;SDS011;19444;50.518;10.870;2023-05-07T13:44:28;7.70;;;6.75;;
32932;SDS011;19444;50.518;10.870;2023-05-07T13:47:25;9.27;;;6.72;;
32932;SDS011;19444;50.518;10.870;2023-05-07T13:50:22;9.63;;;7.90;;
32932;SDS011;19444;50.518;10.870;2023-05-07T13:53:19;7.47;;;5.85;;
32932;SDS011;19444;50.518;10.870;2023-05-07T13:56:16;8.20;;;7.32;;
32932;SDS011;19444;50.518;10.870;2023-05-07T13:59:13;7.72;;;6.40;;
32932;SDS011;19444;50.518;10.870;2023-05-07T14:02:10;8.23;;;6.53;;
32932;SDS011;19444;50.518;10.870;2023-05-07T14:05:07;8.55;;;6.50;;
32932;SDS011;19444;50.518;10.870;2023-05-07T14:08:05;7.20;;;6.13;;
32932;SDS011;19444;50.518;10.870;2023-05-07T14:11:03;7.18;;;5.30;;
32932;SDS011;19444;50.518;10.870;2023-05-07T14:14:00;7.97;;;6.70;;
32932;SDS011;19444;50.518;10.870;2023-05-07T14:16:57;9.93;;;6.68;;
32932;SDS011;19444;50.518;10.870;2023-05-07T14:19:54;8.05;;;6.95;;
32932;SDS011;19444;50.518;10.870;2023-05-07T14:22:52;12.65;;;9.90;;
32932;SDS011;19444;50.518;10.870;2023-05-07T14:25:50;8.13;;;7.18;;
32932;SDS011;19444;50.518;10.870;2023-05-07T14:28:47;9.27;;;7.32;;
32932;SDS011;19444;50.518;10.870;2023-05-07T14:31:45;9.73;;;7.97;;
32932;SDS011;19444;50.518;10.870;2023-05-07T14:34:42;10.45;;;8.55;;
32932;SDS011;19444;50.518;10.870;2023-05-07T14:37:38;8.50;;;6.47;;
32932;SDS011;19444;50.518;10.870;2023-05-07T14:40:35;9.98;;;8.00;;
32932;SDS011;19444;50.518;10.870;2023-05-07T14:43:32;7.70;;;6.63;;
32932;SDS011;19444;50.518;10.870;2023-05-07T14:46:29;9.82;;;7.03;;
32932;SDS011;19444;50.518;10.870;2023-05-07T14:49:26;7.32;;;6.20;;
32932;SDS011;19444;50.518;10.870;2023-05-07T14:52:23;7.57;;;6.13;;
32932;SDS011;19444;50.518;10.870;2023-05-07T14:55:20;7.57;;;6.38;;
32932;SDS011;19444;50.518;10.870;2023-05-07T14:58:17;7.05;;;5.90;;
32932;SDS011;19444;50.518;10.870;2023-05-07T15:01:14;7.95;;;6.25;;
32932;SDS011;19444;50.518;10.870;2023-05-07T15:04:11;7.43;;;5.88;;
32932;SDS011;19444;50.518;10.870;2023-05-07T15:07:08;7.85;;;6.28;;
32932;SDS011;19444;50.518;10.870;2023-05-07T15:10:06;7.43;;;5.97;;
32932;SDS011;19444;50.518;10.870;2023-05-07T15:13:04;7.28;;;5.93;;
32932;SDS011;19444;50.518;10.870;2023-05-07T15:16:01;7.30;;;5.43;;
32932;SDS011;19444;50.518;10.870;2023-05-07T15:18:58;6.90;;;5.50;;
32932;SDS011;19444;50.518;10.870;2023-05-07T15:21:56;7.22;;;6.13;;
32932;SDS011;19444;50.518;10.870;2023-05-07T15:24:55;8.05;;;6.28;;
32932;SDS011;19444;50.518;10.870;2023-05-07T15:27:53;6.97;;;5.40;;
32932;SDS011;19444;50.518;10.870;2023-05-07T15:30:50;7.65;;;6.32;;
32932;SDS011;19444;50.518;10.870;2023-05-07T15:33:49;7.28;;;6.07;;
32932;SDS011;19444;50.518;10.870;2023-05-07T15:36:48;6.38;;;5.40;;
32932;SDS011;19444;50.518;10.870;2023-05-07T15:39:44;7.28;;;5.60;;
32932;SDS011;19444;50.518;10.870;2023-05-07T15:42:42;7.80;;;5.97;;
32932;SDS011;19444;50.518;10.870;2023-05-07T15:45:42;7.10;;;5.68;;
32932;SDS011;19444;50.518;10.870;2023-05-07T15:48:39;5.78;;;5.15;;
32932;SDS011;19444;50.518;10.870;2023-05-07T15:51:36;6.20;;;5.30;;
32932;SDS011;19444;50.518;10.870;2023-05-07T15:54:33;7.85;;;6.15;;
32932;SDS011;19444;50.518;10.870;2023-05-07T15:57:30;7.07;;;5.75;;
32932;SDS011;19444;50.518;10.870;2023-05-07T16:00:27;7.55;;;5.25;;
32932;SDS011;19444;50.518;10.870;2023-05-07T16:03:24;6.82;;;5.63;;
32932;SDS011;19444;50.518;10.870;2023-05-07T16:06:24;6.43;;;5.40;;
32932;SDS011;19444;50.518;10.870;2023-05-07T16:09:21;5.85;;;4.70;;
32932;SDS011;19444;50.518;10.870;2023-05-07T16:12:18;6.07;;;5.03;;
32932;SDS011;19444;50.518;10.870;2023-05-07T16:15:15;7.45;;;5.05;;
32932;SDS011;19444;50.518;10.870;2023-05-07T16:18:12;6.65;;;5.45;;
32932;SDS011;19444;50.518;10.870;2023-05-07T16:21:11;5.78;;;4.80;;
32932;SDS011;19444;50.518;10.870;2023-05-07T16:24:09;7.28;;;5.10;;
32932;SDS011;19444;50.518;10.870;2023-05-07T16:27:06;6.22;;;4.95;;
32932;SDS011;19444;50.518;10.870;2023-05-07T16:30:03;5.88;;;5.13;;
32932;SDS011;19444;50.518;10.870;2023-05-07T16:33:01;5.03;;;4.28;;
32932;SDS011;19444;50.518;10.870;2023-05-07T16:35:58;6.25;;;4.53;;
32932;SDS011;19444;50.518;10.870;2023-05-07T16:38:55;5.75;;;4.65;;
32932;SDS011;19444;50.518;10.870;2023-05-07T16:41:52;7.05;;;4.68;;
32932;SDS011;19444;50.518;10.870;2023-05-07T16:44:48;5.68;;;4.68;;
32932;SDS011;19444;50.518;10.870;2023-05-07T16:47:45;5.97;;;5.00;;
32932;SDS011;19444;50.518;10.870;2023-05-07T16:50:42;6.22;;;5.60;;
32932;SDS011;19444;50.518;10.870;2023-05-07T16:53:39;5.78;;;4.55;;
32932;SDS011;19444;50.518;10.870;2023-05-07T16:56:36;6.50;;;4.65;;
32932;SDS011;19444;50.518;10.870;2023-05-07T16:59:33;5.25;;;4.45;;
32932;SDS011;19444;50.518;10.870;2023-05-07T17:02:30;5.97;;;4.85;;
32932;SDS011;19444;50.518;10.870;2023-05-07T17:05:27;6.43;;;5.05;;
32932;SDS011;19444;50.518;10.870;2023-05-07T17:08:25;4.70;;;4.18;;
32932;SDS011;19444;50.518;10.870;2023-05-07T17:11:22;6.32;;;4.40;;
32932;SDS011;19444;50.518;10.870;2023-05-07T17:14:19;5.30;;;4.60;;
32932;SDS011;19444;50.518;10.870;2023-05-07T17:17:16;6.35;;;4.97;;
32932;SDS011;19444;50.518;10.870;2023-05-07T17:20:14;5.10;;;4.55;;
32932;SDS011;19444;50.518;10.870;2023-05-07T17:23:11;5.32;;;4.50;;
32932;SDS011;19444;50.518;10.870;2023-05-07T17:26:10;6.40;;;5.40;;
32932;SDS011;19444;50.518;10.870;2023-05-07T17:29:12;4.65;;;3.92;;
32932;SDS011;19444;50.518;10.870;2023-05-07T17:32:08;6.00;;;4.38;;